createdAt,value
2023-04-02T00:00:34.426Z,6.2821
2023-04-02T00:01:35.217Z,6.2876
2023-04-02T00:02:36.035Z,6.2834
2023-04-02T00:03:36.967Z,6.2867
2023-04-02T00:04:37.994Z,6.3411
2023-04-02T00:05:38.786Z,6.3421
2023-04-02T00:06:39.609Z,6.3365
2023-04-02T00:07:40.452Z,6.3739
2023-04-02T00:08:41.312Z,6.4233
2023-04-02T00:09:42.188Z,6.4812
2023-04-02T00:10:43.004Z,6.4827
2023-04-02T00:11:43.757Z,6.4319
2023-04-02T00:12:44.609Z,6.3997
2023-04-02T00:13:45.386Z,6.4167
2023-04-02T00:14:47.356Z,6.4072
2023-04-02T00:15:48.166Z,6.4106
2023-04-02T00:16:48.985Z,6.4154
2023-04-02T00:17:49.972Z,6.3934
2023-04-02T00:18:50.750Z,6.3797
2023-04-02T00:19:51.601Z,6.3689
2023-04-02T00:20:52.414Z,6.3987
2023-04-02T00:21:53.234Z,6.4067
2023-04-02T00:22:54.200Z,6.4318
2023-04-02T00:23:54.997Z,6.4103
2023-04-02T00:24:55.811Z,6.3906
2023-04-02T00:25:56.782Z,6.3785
2023-04-02T00:26:57.626Z,6.3605
2023-04-02T00:27:58.479Z,6.3417
2023-04-02T00:28:59.293Z,6.3241
2023-04-02T00:30:00.189Z,6.3052
2023-04-02T00:31:00.992Z,6.2788
2023-04-02T00:32:01.898Z,6.2362
2023-04-02T00:33:02.789Z,6.1963
2023-04-02T00:34:03.701Z,6.1276
2023-04-02T00:35:04.560Z,6.0598
2023-04-02T00:36:05.389Z,6.0486
2023-04-02T00:37:06.235Z,6.0679
2023-04-02T00:38:07.133Z,6.0139
2023-04-02T00:39:07.890Z,5.9773
2023-04-02T00:40:08.674Z,5.9938
2023-04-02T00:41:09.547Z,6.0241
2023-04-02T00:42:10.348Z,6.0220
2023-04-02T00:43:11.170Z,5.9899
2023-04-02T00:44:12.029Z,5.9672
2023-04-02T00:45:12.847Z,5.9521
2023-04-02T00:46:13.691Z,5.9160
2023-04-02T00:47:14.714Z,5.8964
2023-04-02T00:48:15.543Z,5.9224
2023-04-02T00:49:16.411Z,5.9287
2023-04-02T00:50:17.335Z,5.8897
2023-04-02T00:51:18.176Z,5.8845
2023-04-02T00:52:18.997Z,5.8933
2023-04-02T00:53:19.861Z,5.8533
2023-04-02T00:54:20.667Z,5.8339
2023-04-02T00:55:21.590Z,5.8450
2023-04-02T00:56:22.465Z,5.8461
2023-04-02T00:57:23.369Z,5.8471
2023-04-02T00:58:24.339Z,5.8523
2023-04-02T00:59:25.265Z,5.8308
2023-04-02T01:00:26.181Z,5.8746
2023-04-02T01:01:27.177Z,5.9181
2023-04-02T01:02:28.545Z,5.8680
2023-04-02T01:03:30.244Z,5.8627
2023-04-02T01:04:32.002Z,5.8792
2023-04-02T01:05:33.302Z,5.8569
2023-04-02T01:06:35.160Z,5.8086
2023-04-02T01:07:36.000Z,5.8009
2023-04-02T01:08:36.827Z,5.8421
2023-04-02T01:09:37.720Z,5.8392
2023-04-02T01:10:38.870Z,5.8321
2023-04-02T01:11:39.814Z,5.8443
2023-04-02T01:12:40.762Z,5.8486
2023-04-02T01:13:41.653Z,5.9376
2023-04-02T01:14:42.513Z,5.9459
2023-04-02T01:15:43.430Z,5.9557
2023-04-02T01:16:44.250Z,5.9609
2023-04-02T01:17:45.134Z,5.9321
2023-04-02T01:18:46.115Z,5.9409
2023-04-02T01:19:47.044Z,5.9406
2023-04-02T01:20:48.099Z,5.9434
2023-04-02T01:21:48.924Z,5.9575
2023-04-02T01:22:49.848Z,5.9746
2023-04-02T01:23:50.672Z,5.9621
2023-04-02T01:24:51.499Z,5.9812
2023-04-02T01:25:52.377Z,5.9866
2023-04-02T01:26:53.160Z,6.0125
2023-04-02T01:27:54.005Z,6.0145
2023-04-02T01:28:55.079Z,5.9959
2023-04-02T01:29:55.980Z,5.9968
2023-04-02T01:30:56.848Z,6.0025
2023-04-02T01:31:57.709Z,6.0146
2023-04-02T01:32:58.556Z,5.9923
2023-04-02T01:33:59.716Z,5.9792
2023-04-02T01:35:00.506Z,5.9755
2023-04-02T01:36:01.419Z,5.9783
2023-04-02T01:37:02.328Z,5.9909
2023-04-02T01:38:03.143Z,5.9988
2023-04-02T01:39:03.928Z,6.0003
2023-04-02T01:40:04.692Z,5.9996
2023-04-02T01:41:05.522Z,6.0086
2023-04-02T01:42:06.334Z,5.9950
2023-04-02T01:43:07.160Z,6.0012
2023-04-02T01:44:08.992Z,6.0082
2023-04-02T01:45:09.893Z,5.9993
2023-04-02T01:46:10.780Z,6.0134
2023-04-02T01:47:11.604Z,6.0078
2023-04-02T01:48:12.425Z,6.0410
2023-04-02T01:49:13.327Z,6.0662
2023-04-02T01:50:14.192Z,6.0760
2023-04-02T01:51:15.080Z,6.0888
2023-04-02T01:52:15.993Z,6.1221
2023-04-02T01:53:16.848Z,6.1142
2023-04-02T01:54:18.654Z,6.0936
2023-04-02T01:55:19.712Z,6.0918
2023-04-02T01:56:20.528Z,6.0946
2023-04-02T01:57:21.482Z,6.0960
2023-04-02T01:58:22.366Z,6.0998
2023-04-02T01:59:23.256Z,6.1013
2023-04-02T02:00:24.115Z,6.1056
2023-04-02T02:01:25.034Z,6.0903
2023-04-02T02:02:25.987Z,6.0605
2023-04-02T02:03:26.810Z,6.0527
2023-04-02T02:04:27.715Z,6.0704
2023-04-02T02:05:28.618Z,6.0722
2023-04-02T02:06:29.440Z,6.0681
2023-04-02T02:07:30.292Z,6.0616
2023-04-02T02:08:31.085Z,6.0463
2023-04-02T02:09:31.906Z,6.0368
2023-04-02T02:10:32.716Z,6.0480
2023-04-02T02:11:33.516Z,6.0462
2023-04-02T02:12:34.356Z,6.0409
2023-04-02T02:13:35.197Z,6.0317
2023-04-02T02:14:36.017Z,6.0285
2023-04-02T02:15:37.141Z,6.0314
2023-04-02T02:16:38.382Z,6.0227
2023-04-02T02:17:39.245Z,5.9976
2023-04-02T02:18:40.079Z,5.9832
2023-04-02T02:19:40.929Z,5.9689
2023-04-02T02:20:41.859Z,5.9497
2023-04-02T02:21:42.680Z,5.8963
2023-04-02T02:22:43.532Z,5.8839
2023-04-02T02:23:44.400Z,5.8729
2023-04-02T02:24:45.207Z,5.8397
2023-04-02T02:25:46.050Z,5.8020
2023-04-02T02:26:46.870Z,5.7882
2023-04-02T02:27:47.768Z,5.8888
2023-04-02T02:28:48.556Z,5.8312
2023-04-02T02:29:49.444Z,5.7963
2023-04-02T02:30:50.361Z,5.7658
2023-04-02T02:31:51.281Z,5.8484
2023-04-02T02:32:52.197Z,5.8431
2023-04-02T02:33:53.109Z,5.8053
2023-04-02T02:34:53.964Z,5.7404
2023-04-02T02:35:54.905Z,5.7347
2023-04-02T02:36:55.813Z,5.7408
2023-04-02T02:37:56.678Z,5.8112
2023-04-02T02:38:57.597Z,5.8041
2023-04-02T02:39:58.452Z,5.8291
2023-04-02T02:40:59.319Z,5.7849
2023-04-02T02:42:00.157Z,5.8535
2023-04-02T02:43:00.953Z,5.9041
2023-04-02T02:44:01.804Z,5.9550
2023-04-02T02:45:02.661Z,5.9834
2023-04-02T02:46:03.537Z,5.9794
2023-04-02T02:47:04.384Z,5.9992
2023-04-02T02:48:05.259Z,5.9987
2023-04-02T02:49:06.122Z,5.9775
2023-04-02T02:50:06.943Z,5.9897
2023-04-02T02:51:07.796Z,5.9467
2023-04-02T02:52:08.662Z,5.9305
2023-04-02T02:53:09.567Z,5.9387
2023-04-02T02:54:10.357Z,5.9279
2023-04-02T02:55:11.213Z,5.8909
2023-04-02T02:56:12.047Z,5.8839
2023-04-02T02:57:12.941Z,5.8712
2023-04-02T02:58:13.808Z,5.8550
2023-04-02T02:59:14.651Z,5.8697
2023-04-02T03:00:15.572Z,5.8541
2023-04-02T03:01:16.426Z,5.8605
2023-04-02T03:02:17.315Z,5.8818
2023-04-02T03:03:18.430Z,5.9139
2023-04-02T03:04:19.626Z,5.9054
2023-04-02T03:05:20.659Z,5.9154
2023-04-02T03:06:21.556Z,5.9266
2023-04-02T03:07:22.384Z,5.9107
2023-04-02T03:08:23.207Z,5.9014
2023-04-02T03:09:24.064Z,5.9063
2023-04-02T03:10:24.924Z,5.8993
2023-04-02T03:11:25.816Z,5.9079
2023-04-02T03:12:26.644Z,5.8879
2023-04-02T03:13:27.530Z,5.8850
2023-04-02T03:14:28.418Z,5.8851
2023-04-02T03:15:29.273Z,5.8560
2023-04-02T03:16:30.125Z,5.8565
2023-04-02T03:17:30.958Z,5.8266
2023-04-02T03:18:31.795Z,5.8171
2023-04-02T03:19:32.560Z,5.8283
2023-04-02T03:20:33.398Z,5.8228
2023-04-02T03:21:34.280Z,5.8421
2023-04-02T03:22:35.108Z,5.8337
2023-04-02T03:23:36.016Z,5.8135
2023-04-02T03:24:36.871Z,5.8054
2023-04-02T03:25:37.759Z,5.7740
2023-04-02T03:26:38.636Z,5.7680
2023-04-02T03:27:39.440Z,5.7704
2023-04-02T03:28:40.346Z,5.7904
2023-04-02T03:29:41.205Z,5.7882
2023-04-02T03:30:42.018Z,5.7894
2023-04-02T03:31:42.939Z,5.7317
2023-04-02T03:32:43.793Z,5.7078
2023-04-02T03:33:44.639Z,5.7214
2023-04-02T03:34:45.551Z,5.7213
2023-04-02T03:35:46.401Z,5.7146
2023-04-02T03:36:47.305Z,5.7064
2023-04-02T03:37:48.132Z,5.7200
2023-04-02T03:38:48.990Z,5.7074
2023-04-02T03:39:49.862Z,5.6915
2023-04-02T03:40:50.734Z,5.6714
2023-04-02T03:41:51.521Z,5.6397
2023-04-02T03:42:52.407Z,5.6661
2023-04-02T03:43:53.254Z,5.6497
2023-04-02T03:44:54.067Z,5.6460
2023-04-02T03:45:54.907Z,5.6921
2023-04-02T03:46:55.860Z,5.7087
2023-04-02T03:47:56.715Z,5.6998
2023-04-02T03:48:57.622Z,5.6704
2023-04-02T03:49:58.430Z,5.6038
2023-04-02T03:50:59.304Z,5.6027
2023-04-02T03:52:00.224Z,5.6233
2023-04-02T03:53:01.069Z,5.6196
2023-04-02T03:54:01.915Z,5.6065
2023-04-02T03:55:02.690Z,5.5979
2023-04-02T03:56:03.475Z,5.5825
2023-04-02T03:57:04.381Z,5.5634
2023-04-02T03:58:05.271Z,5.5786
2023-04-02T03:59:06.061Z,5.6009
2023-04-02T04:00:06.896Z,5.5979
2023-04-02T04:01:07.770Z,5.5780
2023-04-02T04:02:08.633Z,5.5983
2023-04-02T04:03:09.534Z,5.5963
2023-04-02T04:04:10.599Z,5.6261
2023-04-02T04:05:11.768Z,5.6397
2023-04-02T04:06:12.755Z,5.6792
2023-04-02T04:07:13.671Z,5.6993
2023-04-02T04:08:14.508Z,5.7723
2023-04-02T04:09:15.370Z,5.9919
2023-04-02T04:10:16.234Z,6.0917
2023-04-02T04:11:17.118Z,6.1282
2023-04-02T04:12:17.946Z,6.1125
2023-04-02T04:13:18.859Z,6.1035
2023-04-02T04:14:19.658Z,6.1398
2023-04-02T04:15:20.547Z,6.1304
2023-04-02T04:16:21.468Z,6.1260
2023-04-02T04:17:22.320Z,6.1137
2023-04-02T04:18:24.187Z,6.1034
2023-04-02T04:19:25.012Z,6.1172
2023-04-02T04:20:25.836Z,6.1423
2023-04-02T04:21:26.687Z,6.1374
2023-04-02T04:22:27.563Z,6.1480
2023-04-02T04:23:28.385Z,6.1362
2023-04-02T04:24:29.247Z,6.1249
2023-04-02T04:25:30.104Z,6.1008
2023-04-02T04:26:31.178Z,6.1104
2023-04-02T04:27:32.058Z,6.1341
2023-04-02T04:28:33.002Z,6.1184
2023-04-02T04:29:33.842Z,6.1227
2023-04-02T04:30:34.788Z,6.1142
2023-04-02T04:31:35.637Z,6.1161
2023-04-02T04:32:36.549Z,6.0849
2023-04-02T04:33:37.356Z,6.0822
2023-04-02T04:34:38.192Z,6.0615
2023-04-02T04:35:39.444Z,6.0631
2023-04-02T04:36:39.218Z,6.0840
2023-04-02T04:37:41.033Z,6.0890
2023-04-02T04:38:41.806Z,6.0964
2023-04-02T04:39:42.640Z,6.1089
2023-04-02T04:40:43.448Z,6.1175
2023-04-02T04:41:44.456Z,6.1347
2023-04-02T04:42:45.235Z,6.1231
2023-04-02T04:43:46.140Z,6.1409
2023-04-02T04:44:46.937Z,6.1373
2023-04-02T04:45:47.941Z,6.1423
2023-04-02T04:46:48.778Z,6.1412
2023-04-02T04:47:49.651Z,6.1454
2023-04-02T04:48:50.559Z,6.1621
2023-04-02T04:49:51.402Z,6.1546
2023-04-02T04:50:52.279Z,6.1458
2023-04-02T04:51:53.200Z,6.1527
2023-04-02T04:52:54.077Z,6.1718
2023-04-02T04:53:55.958Z,6.1829
2023-04-02T04:54:56.747Z,6.1639
2023-04-02T04:56:05.905Z,6.1442
2023-04-02T04:56:59.157Z,6.1244
2023-04-02T04:58:00.055Z,6.1311
2023-04-02T04:59:00.856Z,6.1538
2023-04-02T05:00:01.649Z,6.1838
2023-04-02T05:01:02.515Z,6.1751
2023-04-02T05:02:03.460Z,6.1726
2023-04-02T05:03:04.303Z,6.1602
2023-04-02T05:04:05.137Z,6.1307
2023-04-02T05:05:05.982Z,6.1278
2023-04-02T05:06:06.792Z,6.1047
2023-04-02T05:07:07.647Z,6.1066
2023-04-02T05:08:08.465Z,6.0727
2023-04-02T05:09:09.274Z,6.0658
2023-04-02T05:10:10.127Z,6.1184
2023-04-02T05:11:10.983Z,6.1272
2023-04-02T05:12:11.876Z,6.1214
2023-04-02T05:13:12.800Z,6.1229
2023-04-02T05:14:13.589Z,6.1252
2023-04-02T05:15:14.461Z,6.1381
2023-04-02T05:16:16.372Z,6.1187
2023-04-02T05:17:17.187Z,6.1266
2023-04-02T05:18:18.005Z,6.1387
2023-04-02T05:19:19.084Z,6.1480
2023-04-02T05:20:19.854Z,6.1471
2023-04-02T05:21:20.637Z,6.1716
2023-04-02T05:22:21.469Z,6.1627
2023-04-02T05:23:22.278Z,6.1623
2023-04-02T05:24:23.097Z,6.1623
2023-04-02T05:25:23.943Z,6.1728
2023-04-02T05:26:24.752Z,6.1685
2023-04-02T05:27:25.680Z,6.1618
2023-04-02T05:28:26.510Z,6.1765
2023-04-02T05:29:27.465Z,6.1742
2023-04-02T05:30:28.266Z,6.2164
2023-04-02T05:31:29.156Z,6.2466
2023-04-02T05:32:29.999Z,6.2723
2023-04-02T05:33:30.866Z,6.2589
2023-04-02T05:34:31.699Z,6.2380
2023-04-02T05:35:32.567Z,6.2347
2023-04-02T05:36:33.364Z,6.2249
2023-04-02T05:37:34.281Z,6.2503
2023-04-02T05:38:35.132Z,6.2680
2023-04-02T05:39:36.009Z,6.2706
2023-04-02T05:40:36.880Z,6.2619
2023-04-02T05:41:37.743Z,6.2603
2023-04-02T05:42:38.578Z,6.2595
2023-04-02T05:43:39.359Z,6.2658
2023-04-02T05:44:40.170Z,6.2809
2023-04-02T05:45:40.988Z,6.2852
2023-04-02T05:46:41.855Z,6.2656
2023-04-02T05:47:42.805Z,6.2875
2023-04-02T05:48:43.660Z,6.2772
2023-04-02T05:49:44.468Z,6.2947
2023-04-02T05:50:45.283Z,6.2962
2023-04-02T05:51:46.078Z,6.2893
2023-04-02T05:52:46.962Z,6.2657
2023-04-02T05:53:47.754Z,6.2768
2023-04-02T05:54:48.691Z,6.2811
2023-04-02T05:55:49.555Z,6.2951
2023-04-02T05:56:50.456Z,6.3117
2023-04-02T05:58:13.505Z,6.3243
2023-04-02T05:58:52.781Z,6.3235
2023-04-02T05:59:53.660Z,6.3296
2023-04-02T06:00:54.535Z,6.3198
2023-04-02T06:01:55.383Z,6.3399
2023-04-02T06:02:56.284Z,6.3476
2023-04-02T06:03:58.049Z,6.3846
2023-04-02T06:04:58.867Z,6.3984
2023-04-02T06:05:59.695Z,6.3804
2023-04-02T06:07:00.621Z,6.3846
2023-04-02T06:08:02.504Z,6.4201
2023-04-02T06:09:03.310Z,6.4003
2023-04-02T06:10:04.135Z,6.4325
2023-04-02T06:11:05.024Z,6.4553
2023-04-02T06:12:05.861Z,6.4628
2023-04-02T06:13:06.747Z,6.4750
2023-04-02T06:14:07.550Z,6.4891
2023-04-02T06:15:08.408Z,6.4916
2023-04-02T06:16:09.214Z,6.4733
2023-04-02T06:17:09.993Z,6.5252
2023-04-02T06:18:10.885Z,6.5626
2023-04-02T06:19:11.781Z,6.5373
2023-04-02T06:20:12.572Z,6.5055
2023-04-02T06:21:13.314Z,6.5331
2023-04-02T06:22:14.066Z,6.5517
2023-04-02T06:23:14.819Z,6.5952
2023-04-02T06:24:15.662Z,6.5729
2023-04-02T06:25:16.487Z,6.5948
2023-04-02T06:26:17.367Z,6.6343
2023-04-02T06:27:18.209Z,6.7048
2023-04-02T06:28:19.009Z,6.6987
2023-04-02T06:29:19.840Z,6.6148
2023-04-02T06:30:20.650Z,6.6340
2023-04-02T06:31:21.432Z,6.7185
2023-04-02T06:32:22.318Z,6.6510
2023-04-02T06:33:23.103Z,6.6315
2023-04-02T06:34:23.920Z,6.6105
2023-04-02T06:35:24.743Z,6.6636
2023-04-02T06:36:25.545Z,6.6736
2023-04-02T06:37:26.341Z,6.7411
2023-04-02T06:38:27.175Z,6.7710
2023-04-02T06:39:27.985Z,6.8396
2023-04-02T06:40:28.809Z,6.8283
2023-04-02T06:41:29.602Z,6.8751
2023-04-02T06:42:30.411Z,6.8782
2023-04-02T06:43:31.215Z,6.8432
2023-04-02T06:44:32.198Z,6.7996
2023-04-02T06:45:33.125Z,6.8685
2023-04-02T06:46:34.490Z,6.8856
2023-04-02T06:47:35.420Z,6.9101
2023-04-02T06:48:36.250Z,6.8412
2023-04-02T06:49:37.051Z,6.9155
2023-04-02T06:50:37.827Z,6.8818
2023-04-02T06:51:38.666Z,6.8302
2023-04-02T06:52:39.468Z,6.8912
2023-04-02T06:53:40.322Z,6.9188
2023-04-02T06:54:41.089Z,6.9703
2023-04-02T06:55:42.919Z,6.9578
2023-04-02T06:56:43.727Z,6.9996
2023-04-02T06:57:44.674Z,7.0256
2023-04-02T06:58:45.563Z,7.0515
2023-04-02T06:59:47.593Z,7.1402
2023-04-02T07:00:48.409Z,7.1486
2023-04-02T07:01:49.308Z,7.1793
2023-04-02T07:02:50.225Z,7.3166
2023-04-02T07:03:51.051Z,7.3869
2023-04-02T07:04:51.916Z,7.4161
2023-04-02T07:05:52.815Z,7.3662
2023-04-02T07:06:54.670Z,7.2919
2023-04-02T07:07:55.547Z,7.3473
2023-04-02T07:08:56.337Z,7.2857
2023-04-02T07:09:57.130Z,7.2328
2023-04-02T07:10:57.954Z,7.2849
2023-04-02T07:11:58.681Z,7.3013
2023-04-02T07:12:59.472Z,7.4126
2023-04-02T07:14:00.396Z,7.3409
2023-04-02T07:15:01.160Z,7.3493
2023-04-02T07:16:02.018Z,7.3798
2023-04-02T07:17:03.519Z,7.3477
2023-04-02T07:18:04.296Z,7.4373
2023-04-02T07:19:05.766Z,7.3248
2023-04-02T07:20:06.634Z,7.3775
2023-04-02T07:21:10.791Z,7.4634
2023-04-02T07:22:11.195Z,7.3684
2023-04-02T07:23:14.015Z,7.4502
2023-04-02T07:24:13.193Z,7.4682
2023-04-02T07:25:13.970Z,7.5051
2023-04-02T07:26:14.834Z,7.4897
2023-04-02T07:27:15.679Z,7.4159
2023-04-02T07:28:16.599Z,7.4629
2023-04-02T07:29:17.364Z,7.5925
2023-04-02T07:30:18.134Z,7.6536
2023-04-02T07:31:19.013Z,7.6503
2023-04-02T07:32:19.764Z,7.6782
2023-04-02T07:33:20.561Z,7.7456
2023-04-02T07:34:21.401Z,7.6810
2023-04-02T07:35:22.182Z,7.7030
2023-04-02T07:36:23.048Z,7.7274
2023-04-02T07:37:24.078Z,7.7710
2023-04-02T07:38:24.945Z,7.9500
2023-04-02T07:39:25.749Z,8.0251
2023-04-02T07:40:26.557Z,8.0156
2023-04-02T07:41:27.308Z,7.8949
2023-04-02T07:42:28.059Z,7.7059
2023-04-02T07:43:28.938Z,7.8401
2023-04-02T07:44:29.771Z,7.7084
2023-04-02T07:45:30.648Z,7.8133
2023-04-02T07:46:31.486Z,7.8675
2023-04-02T07:47:32.320Z,7.8732
2023-04-02T07:48:34.212Z,7.9447
2023-04-02T07:49:35.040Z,8.3668
2023-04-02T07:50:35.823Z,8.4724
2023-04-02T07:51:36.628Z,8.7275
2023-04-02T07:52:39.854Z,8.7061
2023-04-02T07:53:39.068Z,8.9355
2023-04-02T07:54:39.818Z,9.0645
2023-04-02T07:55:40.538Z,9.2843
2023-04-02T07:56:41.331Z,9.2110
2023-04-02T07:57:43.657Z,9.0584
2023-04-02T07:58:43.117Z,8.8897
2023-04-02T07:59:43.892Z,8.8562
2023-04-02T08:00:44.599Z,8.7493
2023-04-02T08:01:45.381Z,8.8956
2023-04-02T08:02:46.199Z,8.7468
2023-04-02T08:03:47.031Z,8.6294
2023-04-02T08:04:47.941Z,8.5457
2023-04-02T08:05:48.676Z,8.4044
2023-04-02T08:06:49.473Z,8.4689
2023-04-02T08:07:50.250Z,8.2606
2023-04-02T08:08:51.060Z,8.2201
2023-04-02T08:09:51.834Z,8.2490
2023-04-02T08:10:52.658Z,8.1191
2023-04-02T08:11:53.417Z,8.1577
2023-04-02T08:12:54.241Z,8.2343
2023-04-02T08:13:55.032Z,8.2412
2023-04-02T08:14:55.811Z,8.4465
2023-04-02T08:15:56.568Z,8.3889
2023-04-02T08:16:57.376Z,8.4188
2023-04-02T08:17:58.366Z,8.4493
2023-04-02T08:18:59.276Z,8.2579
2023-04-02T08:20:00.056Z,8.4458
2023-04-02T08:21:00.779Z,8.3119
2023-04-02T08:22:01.832Z,8.4480
2023-04-02T08:23:02.587Z,8.5126
2023-04-02T08:24:03.333Z,8.5954
2023-04-02T08:25:04.161Z,8.4035
2023-04-02T08:26:04.899Z,8.3685
2023-04-02T08:27:05.658Z,8.3777
2023-04-02T08:28:06.398Z,8.6275
2023-04-02T08:29:07.099Z,8.9017
2023-04-02T08:30:07.896Z,8.7951
2023-04-02T08:31:08.641Z,8.8157
2023-04-02T08:32:09.414Z,8.9130
2023-04-02T08:33:10.181Z,8.8317
2023-04-02T08:34:10.940Z,8.7444
2023-04-02T08:35:11.667Z,8.8490
2023-04-02T08:36:12.492Z,8.7299
2023-04-02T08:37:13.197Z,8.5836
2023-04-02T08:38:13.934Z,8.5725
2023-04-02T08:39:14.959Z,8.6977
2023-04-02T08:40:15.696Z,8.5414
2023-04-02T08:41:16.457Z,8.5674
2023-04-02T08:42:17.218Z,8.7644
2023-04-02T08:43:17.942Z,8.6892
2023-04-02T08:44:18.675Z,8.6694
2023-04-02T08:45:24.871Z,8.7873
2023-04-02T08:46:19.777Z,8.7624
2023-04-02T08:47:20.574Z,8.7678
2023-04-02T08:48:21.327Z,8.6842
2023-04-02T08:49:22.089Z,8.5962
2023-04-02T08:50:22.856Z,8.5548
2023-04-02T08:51:23.615Z,8.6160
2023-04-02T08:52:24.309Z,8.5127
2023-04-02T08:53:25.077Z,8.6096
2023-04-02T08:54:25.857Z,8.4369
2023-04-02T08:55:26.657Z,8.5050
2023-04-02T08:56:27.370Z,8.5817
2023-04-02T08:57:28.217Z,8.6580
2023-04-02T08:58:29.116Z,8.6414
2023-04-02T08:59:29.886Z,8.6325
2023-04-02T09:00:30.641Z,8.7257
2023-04-02T09:01:31.420Z,8.9122
2023-04-02T09:02:32.324Z,8.8568
2023-04-02T09:03:33.079Z,8.7730
2023-04-02T09:04:33.829Z,8.6757
2023-04-02T09:05:34.803Z,8.8547
2023-04-02T09:06:36.014Z,8.8242
2023-04-02T09:07:36.778Z,8.8650
2023-04-02T09:08:37.539Z,8.7477
2023-04-02T09:09:38.305Z,8.8193
2023-04-02T09:10:39.142Z,8.9299
2023-04-02T09:11:39.941Z,8.9678
2023-04-02T09:12:42.279Z,9.1278
2023-04-02T09:13:40.884Z,9.0879
2023-04-02T09:14:41.639Z,8.9461
2023-04-02T09:15:42.463Z,9.1023
2023-04-02T09:16:43.194Z,9.1978
2023-04-02T09:17:53.629Z,9.2774
2023-04-02T09:18:44.072Z,9.1162
2023-04-02T09:19:44.776Z,9.2808
2023-04-02T09:20:45.521Z,9.1782
2023-04-02T09:21:46.492Z,9.3370
2023-04-02T09:22:47.237Z,9.3057
2023-04-02T09:23:47.955Z,9.3811
2023-04-02T09:24:48.686Z,9.7012
2023-04-02T09:26:02.995Z,9.9239
2023-04-02T09:26:50.791Z,9.8699
2023-04-02T09:27:51.498Z,9.9099
2023-04-02T09:28:52.217Z,9.7620
2023-04-02T09:29:52.924Z,9.6822
2023-04-02T09:30:53.646Z,9.5666
2023-04-02T09:31:54.421Z,9.8604
2023-04-02T09:32:55.274Z,9.8539
2023-04-02T09:33:55.997Z,9.9030
2023-04-02T09:34:56.739Z,9.9490
2023-04-02T09:35:57.595Z,10.0437
2023-04-02T09:36:58.664Z,9.6595
2023-04-02T09:37:59.384Z,9.4157
2023-04-02T09:39:00.115Z,9.4407
2023-04-02T09:40:00.827Z,9.4412
2023-04-02T09:41:01.601Z,9.5574
2023-04-02T09:42:05.851Z,9.5088
2023-04-02T09:43:02.321Z,9.4013
2023-04-02T09:44:03.082Z,9.2727
2023-04-02T09:45:03.879Z,9.2535
2023-04-02T09:46:04.767Z,9.1673
2023-04-02T09:47:05.750Z,9.2467
2023-04-02T09:48:06.586Z,9.4113
2023-04-02T09:49:07.353Z,9.1231
2023-04-02T09:50:08.075Z,9.2145
2023-04-02T09:51:08.815Z,9.2255
2023-04-02T09:52:09.585Z,9.3077
2023-04-02T09:53:10.277Z,9.3326
2023-04-02T09:54:11.006Z,9.3246
2023-04-02T09:55:11.766Z,9.3060
2023-04-02T09:56:12.556Z,9.2217
2023-04-02T09:57:13.338Z,9.3645
2023-04-02T09:58:14.116Z,9.3926
2023-04-02T09:59:14.824Z,9.3253
2023-04-02T10:00:29.750Z,9.3709
2023-04-02T10:01:16.980Z,9.4439
2023-04-02T10:02:17.854Z,9.5361
2023-04-02T10:03:18.589Z,9.5615
2023-04-02T10:04:19.416Z,9.5250
2023-04-02T10:05:30.194Z,9.6204
2023-04-02T10:06:21.561Z,9.8056
2023-04-02T10:07:22.274Z,9.8733
2023-04-02T10:08:23.040Z,10.0064
2023-04-02T10:09:23.787Z,9.9596
2023-04-02T10:10:25.926Z,9.8494
2023-04-02T10:11:28.854Z,9.9696
2023-04-02T10:12:26.494Z,10.0630
2023-04-02T10:13:27.233Z,10.1083
2023-04-02T10:14:27.936Z,10.2151
2023-04-02T10:15:28.703Z,10.1830
2023-04-02T10:16:29.599Z,10.2406
2023-04-02T10:17:30.424Z,10.3269
2023-04-02T10:18:31.068Z,10.2453
2023-04-02T10:19:31.892Z,10.4661
2023-04-02T10:20:39.072Z,10.5958
2023-04-02T10:21:34.013Z,10.5692
2023-04-02T10:22:34.724Z,10.7439
2023-04-02T10:23:35.421Z,10.8543
2023-04-02T10:24:36.160Z,10.4990
2023-04-02T10:25:37.108Z,10.1282
2023-04-02T10:26:38.236Z,10.1794
2023-04-02T10:27:38.912Z,10.1923
2023-04-02T10:28:39.604Z,10.0630
2023-04-02T10:29:40.348Z,10.1071
2023-04-02T10:30:41.115Z,10.2357
2023-04-02T10:31:41.810Z,10.2678
2023-04-02T10:32:42.513Z,10.1370
2023-04-02T10:33:43.200Z,10.0383
2023-04-02T10:34:43.906Z,10.0853
2023-04-02T10:35:44.610Z,9.8620
2023-04-02T10:36:45.357Z,9.9727
2023-04-02T10:37:46.063Z,10.0866
2023-04-02T10:38:46.762Z,10.2991
2023-04-02T10:39:47.448Z,10.2263
2023-04-02T10:40:48.144Z,10.0389
2023-04-02T10:41:48.872Z,9.9439
2023-04-02T10:42:49.533Z,9.7563
2023-04-02T10:43:50.282Z,9.7598
2023-04-02T10:44:50.982Z,9.8509
2023-04-02T10:45:51.689Z,10.1600
2023-04-02T10:46:52.351Z,10.2126
2023-04-02T10:47:53.112Z,10.0152
2023-04-02T10:48:53.817Z,10.0587
2023-04-02T10:49:54.517Z,10.1175
2023-04-02T10:50:55.246Z,10.2354
2023-04-02T10:51:55.944Z,10.4278
2023-04-02T10:52:56.875Z,10.5536
2023-04-02T10:53:57.580Z,10.6244
2023-04-02T10:54:58.301Z,10.4971
2023-04-02T10:55:58.987Z,10.4745
2023-04-02T10:56:59.694Z,10.3221
2023-04-02T10:58:00.339Z,10.4320
2023-04-02T10:59:01.017Z,10.2767
2023-04-02T11:00:01.827Z,10.2231
2023-04-02T11:01:02.548Z,10.4014
2023-04-02T11:02:03.258Z,10.5391
2023-04-02T11:03:04.446Z,10.7937
2023-04-02T11:04:05.412Z,10.8271
2023-04-02T11:05:06.123Z,10.9604
2023-04-02T11:06:07.112Z,10.7854
2023-04-02T11:07:14.354Z,10.8372
2023-04-02T11:08:09.002Z,10.8378
2023-04-02T11:09:09.681Z,10.9115
2023-04-02T11:10:10.363Z,10.9677
2023-04-02T11:11:11.071Z,10.8830
2023-04-02T11:12:11.750Z,10.5650
2023-04-02T11:13:12.440Z,10.7433
2023-04-02T11:14:13.132Z,10.8688
2023-04-02T11:15:13.816Z,10.9009
2023-04-02T11:16:14.557Z,10.8829
2023-04-02T11:17:15.181Z,10.8946
2023-04-02T11:18:15.901Z,10.8635
2023-04-02T11:19:16.840Z,11.2506
2023-04-02T11:20:17.588Z,11.2801
2023-04-02T11:21:18.279Z,11.2330
2023-04-02T11:22:18.985Z,10.9721
2023-04-02T11:23:19.690Z,10.9019
2023-04-02T11:24:20.388Z,10.6731
2023-04-02T11:25:21.117Z,10.8268
2023-04-02T11:26:21.789Z,11.0534
2023-04-02T11:27:22.498Z,11.1768
2023-04-02T11:28:25.044Z,11.2982
2023-04-02T11:29:23.768Z,11.5651
2023-04-02T11:30:24.479Z,11.4768
2023-04-02T11:31:25.170Z,11.3823
2023-04-02T11:32:25.860Z,11.4445
2023-04-02T11:33:36.259Z,11.0565
2023-04-02T11:34:27.926Z,11.1861
2023-04-02T11:35:28.661Z,11.1362
2023-04-02T11:36:29.355Z,11.2609
2023-04-02T11:37:30.078Z,11.2855
2023-04-02T11:38:30.766Z,11.5435
2023-04-02T11:39:31.472Z,11.5911
2023-04-02T11:40:32.179Z,11.5599
2023-04-02T11:41:32.924Z,11.7185
2023-04-02T11:42:33.611Z,11.9087
2023-04-02T11:43:34.317Z,11.6196
2023-04-02T11:44:35.030Z,11.9644
2023-04-02T11:45:46.499Z,12.0829
2023-04-02T11:46:37.146Z,11.9806
2023-04-02T11:47:37.894Z,12.0208
2023-04-02T11:48:38.597Z,11.6696
2023-04-02T11:49:39.298Z,11.5127
2023-04-02T11:50:40.951Z,12.2749
2023-04-02T11:51:42.358Z,12.7238
2023-04-02T11:52:43.131Z,12.5810
2023-04-02T11:53:43.762Z,13.5679
2023-04-02T11:54:44.413Z,13.5026
2023-04-02T11:55:45.065Z,13.2485
2023-04-02T11:56:45.749Z,12.2474
2023-04-02T11:57:46.467Z,12.0464
2023-04-02T11:58:47.124Z,12.0378
2023-04-02T11:59:47.793Z,11.8824
2023-04-02T12:00:48.473Z,13.6320
2023-04-02T12:01:49.155Z,14.3765
2023-04-02T12:02:49.867Z,14.6228
2023-04-02T12:03:50.559Z,12.9966
2023-04-02T12:04:51.200Z,12.5503
2023-04-02T12:05:51.903Z,12.7960
2023-04-02T12:06:52.564Z,11.8419
2023-04-02T12:07:53.272Z,11.1549
2023-04-02T12:08:57.903Z,11.2043
2023-04-02T12:09:54.803Z,11.4929
2023-04-02T12:10:55.511Z,11.6961
2023-04-02T12:11:57.192Z,11.5747
2023-04-02T12:12:57.875Z,11.5202
2023-04-02T12:13:58.561Z,11.5197
2023-04-02T12:14:59.263Z,11.5668
2023-04-02T12:15:59.911Z,11.5860
2023-04-02T12:17:00.678Z,11.4822
2023-04-02T12:18:01.379Z,11.3494
2023-04-02T12:19:02.031Z,11.1707
2023-04-02T12:20:05.118Z,11.2194
2023-04-02T12:21:04.536Z,11.3073
2023-04-02T12:22:05.195Z,11.0074
2023-04-02T12:23:05.926Z,10.9053
2023-04-02T12:24:06.600Z,10.9015
2023-04-02T12:25:07.275Z,10.8628
2023-04-02T12:26:07.961Z,10.8387
2023-04-02T12:27:08.588Z,11.0497
2023-04-02T12:28:09.322Z,11.2251
2023-04-02T12:29:10.122Z,11.3178
2023-04-02T12:30:10.786Z,11.3852
2023-04-02T12:31:11.457Z,11.1444
2023-04-02T12:32:12.184Z,11.1629
2023-04-02T12:33:12.919Z,11.1455
2023-04-02T12:34:13.595Z,11.3496
2023-04-02T12:35:14.288Z,11.4474